sensor_id;sensor_type;location;lat;lon;timestamp;P1;durP1;ratioP1;P2;durP2;ratioP2
74523;SDS011;63074;44.696;10.358;2023-07-31T00:01:35;3.72;;;2.03;;
74523;SDS011;63074;44.696;10.358;2023-07-31T00:04:02;4.47;;;2.20;;
74523;SDS011;63074;44.696;10.358;2023-07-31T00:06:28;4.40;;;2.45;;
74523;SDS011;63074;44.696;10.358;2023-07-31T00:08:54;2.28;;;1.75;;
74523;SDS011;63074;44.696;10.358;2023-07-31T00:11:20;3.28;;;2.28;;
74523;SDS011;63074;44.696;10.358;2023-07-31T00:13:46;3.33;;;1.92;;
74523;SDS011;63074;44.696;10.358;2023-07-31T00:16:12;2.53;;;2.13;;
74523;SDS011;63074;44.696;10.358;2023-07-31T00:18:38;4.80;;;2.05;;
74523;SDS011;63074;44.696;10.358;2023-07-31T00:21:04;3.00;;;2.08;;
74523;SDS011;63074;44.696;10.358;2023-07-31T00:23:30;3.20;;;2.40;;
74523;SDS011;63074;44.696;10.358;2023-07-31T00:25:56;3.20;;;2.28;;
74523;SDS011;63074;44.696;10.358;2023-07-31T00:28:22;3.72;;;2.47;;
74523;SDS011;63074;44.696;10.358;2023-07-31T00:30:48;4.03;;;2.53;;
74523;SDS011;63074;44.696;10.358;2023-07-31T00:33:14;3.25;;;2.40;;
74523;SDS011;63074;44.696;10.358;2023-07-31T00:35:40;4.00;;;2.63;;
74523;SDS011;63074;44.696;10.358;2023-07-31T00:38:06;4.15;;;2.75;;
74523;SDS011;63074;44.696;10.358;2023-07-31T00:40:36;4.53;;;2.75;;
74523;SDS011;63074;44.696;10.358;2023-07-31T00:43:02;3.75;;;2.17;;
74523;SDS011;63074;44.696;10.358;2023-07-31T00:45:28;4.05;;;2.00;;
74523;SDS011;63074;44.696;10.358;2023-07-31T00:47:55;3.33;;;2.00;;
74523;SDS011;63074;44.696;10.358;2023-07-31T00:50:22;3.85;;;2.20;;
74523;SDS011;63074;44.696;10.358;2023-07-31T00:52:48;3.42;;;2.13;;
74523;SDS011;63074;44.696;10.358;2023-07-31T00:55:14;2.97;;;2.10;;
74523;SDS011;63074;44.696;10.358;2023-07-31T00:57:40;3.40;;;2.25;;
74523;SDS011;63074;44.696;10.358;2023-07-31T01:00:07;3.20;;;1.90;;
74523;SDS011;63074;44.696;10.358;2023-07-31T01:02:34;4.05;;;2.05;;
74523;SDS011;63074;44.696;10.358;2023-07-31T01:05:01;3.13;;;2.13;;
74523;SDS011;63074;44.696;10.358;2023-07-31T01:12:42;4.35;;;2.47;;
74523;SDS011;63074;44.696;10.358;2023-07-31T01:15:09;3.72;;;2.45;;
74523;SDS011;63074;44.696;10.358;2023-07-31T01:17:40;3.35;;;2.38;;
74523;SDS011;63074;44.696;10.358;2023-07-31T01:27:48;2.78;;;1.60;;
74523;SDS011;63074;44.696;10.358;2023-07-31T01:32:43;3.35;;;2.22;;
74523;SDS011;63074;44.696;10.358;2023-07-31T01:35:11;2.58;;;2.15;;
74523;SDS011;63074;44.696;10.358;2023-07-31T01:37:37;3.42;;;2.17;;
74523;SDS011;63074;44.696;10.358;2023-07-31T01:40:05;3.63;;;2.35;;
74523;SDS011;63074;44.696;10.358;2023-07-31T01:42:31;2.67;;;1.70;;
74523;SDS011;63074;44.696;10.358;2023-07-31T01:44:57;3.17;;;2.08;;
74523;SDS011;63074;44.696;10.358;2023-07-31T01:47:23;3.88;;;2.35;;
74523;SDS011;63074;44.696;10.358;2023-07-31T01:49:49;5.05;;;2.67;;
74523;SDS011;63074;44.696;10.358;2023-07-31T01:52:15;3.08;;;2.35;;
74523;SDS011;63074;44.696;10.358;2023-07-31T01:54:41;3.70;;;2.40;;
74523;SDS011;63074;44.696;10.358;2023-07-31T01:57:07;4.10;;;2.83;;
74523;SDS011;63074;44.696;10.358;2023-07-31T01:59:33;4.60;;;2.20;;
74523;SDS011;63074;44.696;10.358;2023-07-31T02:01:59;3.88;;;2.80;;
74523;SDS011;63074;44.696;10.358;2023-07-31T02:04:26;5.68;;;2.65;;
74523;SDS011;63074;44.696;10.358;2023-07-31T02:06:52;4.80;;;2.50;;
74523;SDS011;63074;44.696;10.358;2023-07-31T02:09:18;5.15;;;2.40;;
74523;SDS011;63074;44.696;10.358;2023-07-31T02:11:45;3.65;;;2.55;;
74523;SDS011;63074;44.696;10.358;2023-07-31T02:14:11;3.47;;;2.47;;
74523;SDS011;63074;44.696;10.358;2023-07-31T02:16:37;4.00;;;2.70;;
74523;SDS011;63074;44.696;10.358;2023-07-31T02:19:03;3.72;;;2.50;;
74523;SDS011;63074;44.696;10.358;2023-07-31T02:21:29;3.05;;;2.30;;
74523;SDS011;63074;44.696;10.358;2023-07-31T02:23:55;4.68;;;2.60;;
74523;SDS011;63074;44.696;10.358;2023-07-31T02:26:21;3.70;;;2.65;;
74523;SDS011;63074;44.696;10.358;2023-07-31T02:28:47;4.47;;;2.95;;
74523;SDS011;63074;44.696;10.358;2023-07-31T02:31:13;4.30;;;2.80;;
74523;SDS011;63074;44.696;10.358;2023-07-31T02:33:39;4.03;;;2.40;;
74523;SDS011;63074;44.696;10.358;2023-07-31T02:36:05;3.47;;;2.25;;
74523;SDS011;63074;44.696;10.358;2023-07-31T02:38:31;4.63;;;3.03;;
74523;SDS011;63074;44.696;10.358;2023-07-31T02:40:57;3.22;;;2.65;;
74523;SDS011;63074;44.696;10.358;2023-07-31T02:43:23;3.30;;;2.58;;
74523;SDS011;63074;44.696;10.358;2023-07-31T02:45:52;3.70;;;2.67;;
74523;SDS011;63074;44.696;10.358;2023-07-31T02:50:44;4.15;;;2.85;;
74523;SDS011;63074;44.696;10.358;2023-07-31T02:53:11;3.17;;;2.30;;
74523;SDS011;63074;44.696;10.358;2023-07-31T02:55:37;4.88;;;2.53;;
74523;SDS011;63074;44.696;10.358;2023-07-31T02:58:03;2.60;;;2.30;;
74523;SDS011;63074;44.696;10.358;2023-07-31T03:00:29;4.50;;;2.47;;
74523;SDS011;63074;44.696;10.358;2023-07-31T03:02:55;3.67;;;2.22;;
74523;SDS011;63074;44.696;10.358;2023-07-31T03:05:21;3.53;;;2.30;;
74523;SDS011;63074;44.696;10.358;2023-07-31T03:07:47;6.50;;;2.53;;
74523;SDS011;63074;44.696;10.358;2023-07-31T03:10:14;4.03;;;2.38;;
74523;SDS011;63074;44.696;10.358;2023-07-31T03:12:40;4.30;;;2.17;;
74523;SDS011;63074;44.696;10.358;2023-07-31T03:15:06;3.83;;;2.50;;
74523;SDS011;63074;44.696;10.358;2023-07-31T03:17:32;4.00;;;2.55;;
74523;SDS011;63074;44.696;10.358;2023-07-31T03:19:58;3.65;;;2.50;;
74523;SDS011;63074;44.696;10.358;2023-07-31T03:22:24;4.05;;;2.40;;
74523;SDS011;63074;44.696;10.358;2023-07-31T03:24:50;3.80;;;2.72;;
74523;SDS011;63074;44.696;10.358;2023-07-31T03:29:42;4.20;;;2.17;;
74523;SDS011;63074;44.696;10.358;2023-07-31T03:32:08;4.15;;;2.40;;
74523;SDS011;63074;44.696;10.358;2023-07-31T03:34:34;4.68;;;2.53;;
74523;SDS011;63074;44.696;10.358;2023-07-31T03:37:00;4.72;;;1.90;;
74523;SDS011;63074;44.696;10.358;2023-07-31T03:39:26;4.90;;;2.65;;
74523;SDS011;63074;44.696;10.358;2023-07-31T03:41:52;6.00;;;2.85;;
74523;SDS011;63074;44.696;10.358;2023-07-31T03:44:18;5.13;;;2.80;;
74523;SDS011;63074;44.696;10.358;2023-07-31T03:46:44;4.03;;;3.35;;
74523;SDS011;63074;44.696;10.358;2023-07-31T03:49:10;5.38;;;2.90;;
74523;SDS011;63074;44.696;10.358;2023-07-31T03:51:36;5.45;;;2.75;;
74523;SDS011;63074;44.696;10.358;2023-07-31T03:54:02;5.07;;;3.00;;
74523;SDS011;63074;44.696;10.358;2023-07-31T03:56:28;5.60;;;2.83;;
74523;SDS011;63074;44.696;10.358;2023-07-31T03:58:54;3.47;;;2.65;;
74523;SDS011;63074;44.696;10.358;2023-07-31T04:01:20;5.95;;;2.63;;
74523;SDS011;63074;44.696;10.358;2023-07-31T04:03:47;4.47;;;3.20;;
74523;SDS011;63074;44.696;10.358;2023-07-31T04:06:13;5.15;;;3.15;;
74523;SDS011;63074;44.696;10.358;2023-07-31T04:08:41;5.82;;;2.97;;
74523;SDS011;63074;44.696;10.358;2023-07-31T04:11:07;4.55;;;3.03;;
74523;SDS011;63074;44.696;10.358;2023-07-31T04:13:33;3.85;;;2.90;;
74523;SDS011;63074;44.696;10.358;2023-07-31T04:15:59;4.13;;;3.28;;
74523;SDS011;63074;44.696;10.358;2023-07-31T04:18:25;5.22;;;3.75;;
74523;SDS011;63074;44.696;10.358;2023-07-31T04:20:51;4.60;;;3.28;;
74523;SDS011;63074;44.696;10.358;2023-07-31T04:25:43;4.38;;;2.53;;
74523;SDS011;63074;44.696;10.358;2023-07-31T04:28:09;5.15;;;2.88;;
74523;SDS011;63074;44.696;10.358;2023-07-31T04:30:35;4.15;;;2.83;;
74523;SDS011;63074;44.696;10.358;2023-07-31T04:33:01;4.95;;;2.88;;
74523;SDS011;63074;44.696;10.358;2023-07-31T04:35:27;4.72;;;2.70;;
74523;SDS011;63074;44.696;10.358;2023-07-31T04:37:53;5.00;;;3.22;;
74523;SDS011;63074;44.696;10.358;2023-07-31T04:40:20;4.25;;;2.78;;
74523;SDS011;63074;44.696;10.358;2023-07-31T04:42:46;5.40;;;3.88;;
74523;SDS011;63074;44.696;10.358;2023-07-31T04:45:12;4.20;;;2.72;;
74523;SDS011;63074;44.696;10.358;2023-07-31T04:47:38;5.22;;;3.22;;
74523;SDS011;63074;44.696;10.358;2023-07-31T04:50:05;4.07;;;2.78;;
74523;SDS011;63074;44.696;10.358;2023-07-31T04:52:31;3.97;;;3.03;;
74523;SDS011;63074;44.696;10.358;2023-07-31T04:54:57;4.53;;;2.72;;
74523;SDS011;63074;44.696;10.358;2023-07-31T04:57:23;4.47;;;2.67;;
74523;SDS011;63074;44.696;10.358;2023-07-31T04:59:49;4.68;;;2.97;;
74523;SDS011;63074;44.696;10.358;2023-07-31T05:02:15;6.32;;;3.10;;
74523;SDS011;63074;44.696;10.358;2023-07-31T05:04:41;5.18;;;2.70;;
74523;SDS011;63074;44.696;10.358;2023-07-31T05:07:07;4.03;;;3.15;;
74523;SDS011;63074;44.696;10.358;2023-07-31T05:09:33;4.65;;;3.33;;
74523;SDS011;63074;44.696;10.358;2023-07-31T05:11:59;4.97;;;2.95;;
74523;SDS011;63074;44.696;10.358;2023-07-31T05:14:25;6.95;;;3.17;;
74523;SDS011;63074;44.696;10.358;2023-07-31T05:16:51;4.57;;;3.10;;
74523;SDS011;63074;44.696;10.358;2023-07-31T05:21:44;6.25;;;3.60;;
74523;SDS011;63074;44.696;10.358;2023-07-31T05:24:10;5.28;;;3.65;;
74523;SDS011;63074;44.696;10.358;2023-07-31T05:26:36;5.90;;;3.90;;
74523;SDS011;63074;44.696;10.358;2023-07-31T05:29:03;5.05;;;3.45;;
74523;SDS011;63074;44.696;10.358;2023-07-31T05:31:29;5.95;;;3.55;;
74523;SDS011;63074;44.696;10.358;2023-07-31T05:33:57;6.65;;;3.72;;
74523;SDS011;63074;44.696;10.358;2023-07-31T05:36:23;6.13;;;3.42;;
74523;SDS011;63074;44.696;10.358;2023-07-31T05:38:49;7.25;;;3.90;;
74523;SDS011;63074;44.696;10.358;2023-07-31T05:41:15;6.38;;;3.65;;
74523;SDS011;63074;44.696;10.358;2023-07-31T05:43:41;6.55;;;4.20;;
74523;SDS011;63074;44.696;10.358;2023-07-31T05:46:08;7.47;;;3.92;;
74523;SDS011;63074;44.696;10.358;2023-07-31T05:48:34;7.30;;;3.60;;
74523;SDS011;63074;44.696;10.358;2023-07-31T05:51:00;4.80;;;3.38;;
74523;SDS011;63074;44.696;10.358;2023-07-31T05:53:27;5.78;;;3.60;;
74523;SDS011;63074;44.696;10.358;2023-07-31T05:55:53;5.78;;;3.90;;
74523;SDS011;63074;44.696;10.358;2023-07-31T05:58:19;6.13;;;3.65;;
74523;SDS011;63074;44.696;10.358;2023-07-31T06:00:45;6.03;;;4.47;;
74523;SDS011;63074;44.696;10.358;2023-07-31T06:03:11;6.97;;;4.35;;
74523;SDS011;63074;44.696;10.358;2023-07-31T06:05:37;6.32;;;4.63;;
74523;SDS011;63074;44.696;10.358;2023-07-31T06:08:03;6.30;;;4.28;;
74523;SDS011;63074;44.696;10.358;2023-07-31T06:10:29;13.52;;;6.95;;
74523;SDS011;63074;44.696;10.358;2023-07-31T06:12:55;10.73;;;6.55;;
74523;SDS011;63074;44.696;10.358;2023-07-31T06:15:22;7.85;;;6.28;;
74523;SDS011;63074;44.696;10.358;2023-07-31T06:17:48;8.88;;;6.05;;
74523;SDS011;63074;44.696;10.358;2023-07-31T06:20:14;8.10;;;5.85;;
74523;SDS011;63074;44.696;10.358;2023-07-31T06:22:40;9.80;;;6.47;;
74523;SDS011;63074;44.696;10.358;2023-07-31T06:25:06;8.73;;;6.35;;
74523;SDS011;63074;44.696;10.358;2023-07-31T06:27:32;9.35;;;6.22;;
74523;SDS011;63074;44.696;10.358;2023-07-31T06:29:59;8.23;;;5.95;;
74523;SDS011;63074;44.696;10.358;2023-07-31T06:32:25;7.80;;;5.15;;
74523;SDS011;63074;44.696;10.358;2023-07-31T06:34:51;8.30;;;6.20;;
74523;SDS011;63074;44.696;10.358;2023-07-31T06:39:42;7.07;;;5.65;;
74523;SDS011;63074;44.696;10.358;2023-07-31T06:42:08;8.43;;;5.45;;
74523;SDS011;63074;44.696;10.358;2023-07-31T06:44:34;7.40;;;5.63;;
74523;SDS011;63074;44.696;10.358;2023-07-31T06:47:01;9.52;;;5.88;;
74523;SDS011;63074;44.696;10.358;2023-07-31T06:49:27;8.60;;;6.07;;
74523;SDS011;63074;44.696;10.358;2023-07-31T06:51:53;9.52;;;5.85;;
74523;SDS011;63074;44.696;10.358;2023-07-31T06:54:19;7.93;;;6.00;;
74523;SDS011;63074;44.696;10.358;2023-07-31T06:56:45;8.35;;;6.28;;
74523;SDS011;63074;44.696;10.358;2023-07-31T06:59:11;7.07;;;4.53;;
74523;SDS011;63074;44.696;10.358;2023-07-31T07:01:37;7.07;;;5.45;;
74523;SDS011;63074;44.696;10.358;2023-07-31T07:04:03;8.85;;;5.13;;
74523;SDS011;63074;44.696;10.358;2023-07-31T07:06:29;8.38;;;6.03;;
74523;SDS011;63074;44.696;10.358;2023-07-31T07:08:55;6.63;;;4.47;;
74523;SDS011;63074;44.696;10.358;2023-07-31T07:11:21;7.80;;;5.55;;
74523;SDS011;63074;44.696;10.358;2023-07-31T07:13:47;8.82;;;5.13;;
74523;SDS011;63074;44.696;10.358;2023-07-31T07:16:14;6.38;;;4.82;;
74523;SDS011;63074;44.696;10.358;2023-07-31T07:18:40;7.05;;;4.45;;
74523;SDS011;63074;44.696;10.358;2023-07-31T07:21:06;6.80;;;4.38;;
74523;SDS011;63074;44.696;10.358;2023-07-31T07:23:32;6.03;;;4.47;;
74523;SDS011;63074;44.696;10.358;2023-07-31T07:25:58;7.25;;;4.47;;
74523;SDS011;63074;44.696;10.358;2023-07-31T07:28:24;7.28;;;4.38;;
74523;SDS011;63074;44.696;10.358;2023-07-31T07:30:51;5.32;;;4.03;;
74523;SDS011;63074;44.696;10.358;2023-07-31T07:35:43;7.40;;;4.32;;
74523;SDS011;63074;44.696;10.358;2023-07-31T07:38:09;5.85;;;4.20;;
74523;SDS011;63074;44.696;10.358;2023-07-31T07:40:39;7.13;;;4.07;;
74523;SDS011;63074;44.696;10.358;2023-07-31T07:43:05;8.25;;;4.55;;
74523;SDS011;63074;44.696;10.358;2023-07-31T07:45:31;7.43;;;5.38;;
74523;SDS011;63074;44.696;10.358;2023-07-31T07:47:57;6.13;;;4.50;;
74523;SDS011;63074;44.696;10.358;2023-07-31T07:50:24;6.32;;;4.18;;
74523;SDS011;63074;44.696;10.358;2023-07-31T07:52:50;9.23;;;4.10;;
74523;SDS011;63074;44.696;10.358;2023-07-31T07:55:16;6.38;;;4.47;;
74523;SDS011;63074;44.696;10.358;2023-07-31T07:57:42;7.47;;;5.22;;
74523;SDS011;63074;44.696;10.358;2023-07-31T08:00:10;8.75;;;5.05;;
74523;SDS011;63074;44.696;10.358;2023-07-31T08:02:36;6.95;;;4.95;;
74523;SDS011;63074;44.696;10.358;2023-07-31T08:05:02;9.52;;;4.63;;
74523;SDS011;63074;44.696;10.358;2023-07-31T08:07:28;9.50;;;5.28;;
74523;SDS011;63074;44.696;10.358;2023-07-31T08:09:54;8.02;;;4.57;;
74523;SDS011;63074;44.696;10.358;2023-07-31T08:12:20;6.20;;;4.45;;
74523;SDS011;63074;44.696;10.358;2023-07-31T08:14:46;8.52;;;5.28;;
74523;SDS011;63074;44.696;10.358;2023-07-31T08:17:12;6.82;;;4.88;;
74523;SDS011;63074;44.696;10.358;2023-07-31T08:19:38;7.20;;;4.78;;
74523;SDS011;63074;44.696;10.358;2023-07-31T08:22:04;9.13;;;5.65;;
74523;SDS011;63074;44.696;10.358;2023-07-31T08:24:31;18.23;;;7.72;;
74523;SDS011;63074;44.696;10.358;2023-07-31T08:26:57;14.95;;;6.32;;
74523;SDS011;63074;44.696;10.358;2023-07-31T08:29:23;10.63;;;6.10;;
74523;SDS011;63074;44.696;10.358;2023-07-31T08:31:49;7.68;;;5.32;;
74523;SDS011;63074;44.696;10.358;2023-07-31T08:34:15;11.88;;;5.28;;
74523;SDS011;63074;44.696;10.358;2023-07-31T08:36:41;9.05;;;4.75;;
74523;SDS011;63074;44.696;10.358;2023-07-31T08:39:07;8.80;;;5.00;;
74523;SDS011;63074;44.696;10.358;2023-07-31T08:41:39;9.55;;;4.57;;
74523;SDS011;63074;44.696;10.358;2023-07-31T08:44:06;6.60;;;3.90;;
74523;SDS011;63074;44.696;10.358;2023-07-31T08:46:32;5.25;;;4.25;;
74523;SDS011;63074;44.696;10.358;2023-07-31T08:48:59;7.95;;;3.85;;
74523;SDS011;63074;44.696;10.358;2023-07-31T08:51:25;4.78;;;3.50;;
74523;SDS011;63074;44.696;10.358;2023-07-31T08:53:52;6.05;;;3.95;;
74523;SDS011;63074;44.696;10.358;2023-07-31T08:58:44;6.68;;;3.50;;
74523;SDS011;63074;44.696;10.358;2023-07-31T09:01:12;4.93;;;3.75;;
74523;SDS011;63074;44.696;10.358;2023-07-31T09:03:38;7.22;;;3.83;;
74523;SDS011;63074;44.696;10.358;2023-07-31T09:06:04;6.15;;;3.58;;
74523;SDS011;63074;44.696;10.358;2023-07-31T09:08:31;10.63;;;4.13;;
74523;SDS011;63074;44.696;10.358;2023-07-31T09:11:01;6.45;;;4.03;;
74523;SDS011;63074;44.696;10.358;2023-07-31T09:13:30;4.82;;;3.20;;
74523;SDS011;63074;44.696;10.358;2023-07-31T09:15:57;5.65;;;3.20;;
74523;SDS011;63074;44.696;10.358;2023-07-31T09:18:23;7.82;;;3.83;;
74523;SDS011;63074;44.696;10.358;2023-07-31T09:23:27;7.28;;;3.25;;
74523;SDS011;63074;44.696;10.358;2023-07-31T09:26:05;4.22;;;3.13;;
74523;SDS011;63074;44.696;10.358;2023-07-31T09:28:31;4.90;;;3.58;;
74523;SDS011;63074;44.696;10.358;2023-07-31T09:30:57;6.47;;;3.50;;
74523;SDS011;63074;44.696;10.358;2023-07-31T09:33:23;6.15;;;3.67;;
74523;SDS011;63074;44.696;10.358;2023-07-31T09:35:49;5.45;;;3.33;;
74523;SDS011;63074;44.696;10.358;2023-07-31T09:38:16;4.88;;;3.28;;
74523;SDS011;63074;44.696;10.358;2023-07-31T09:40:43;7.32;;;3.72;;
74523;SDS011;63074;44.696;10.358;2023-07-31T09:43:10;5.65;;;4.05;;
74523;SDS011;63074;44.696;10.358;2023-07-31T09:45:37;5.38;;;3.78;;
74523;SDS011;63074;44.696;10.358;2023-07-31T09:48:06;4.63;;;3.70;;
74523;SDS011;63074;44.696;10.358;2023-07-31T09:50:37;4.32;;;3.00;;
74523;SDS011;63074;44.696;10.358;2023-07-31T09:53:03;8.77;;;3.35;;
74523;SDS011;63074;44.696;10.358;2023-07-31T09:55:29;4.40;;;3.35;;
74523;SDS011;63074;44.696;10.358;2023-07-31T09:57:57;3.30;;;2.95;;
74523;SDS011;63074;44.696;10.358;2023-07-31T10:00:23;5.63;;;3.00;;
74523;SDS011;63074;44.696;10.358;2023-07-31T10:02:53;8.63;;;2.53;;
74523;SDS011;63074;44.696;10.358;2023-07-31T10:05:20;5.18;;;2.83;;
74523;SDS011;63074;44.696;10.358;2023-07-31T10:07:55;9.63;;;2.92;;
74523;SDS011;63074;44.696;10.358;2023-07-31T10:10:23;3.22;;;2.75;;
74523;SDS011;63074;44.696;10.358;2023-07-31T10:12:49;5.53;;;2.55;;
74523;SDS011;63074;44.696;10.358;2023-07-31T10:15:15;19.45;;;4.00;;
74523;SDS011;63074;44.696;10.358;2023-07-31T10:17:42;5.70;;;2.70;;
74523;SDS011;63074;44.696;10.358;2023-07-31T10:20:08;6.05;;;2.33;;
74523;SDS011;63074;44.696;10.358;2023-07-31T10:22:35;4.88;;;2.13;;
74523;SDS011;63074;44.696;10.358;2023-07-31T10:25:01;4.45;;;2.78;;
74523;SDS011;63074;44.696;10.358;2023-07-31T10:27:27;3.83;;;2.92;;
74523;SDS011;63074;44.696;10.358;2023-07-31T10:29:57;5.25;;;3.28;;
74523;SDS011;63074;44.696;10.358;2023-07-31T10:32:24;3.97;;;2.92;;
74523;SDS011;63074;44.696;10.358;2023-07-31T10:34:50;4.40;;;2.28;;
74523;SDS011;63074;44.696;10.358;2023-07-31T10:39:43;3.97;;;2.10;;
74523;SDS011;63074;44.696;10.358;2023-07-31T10:42:12;6.45;;;2.60;;
74523;SDS011;63074;44.696;10.358;2023-07-31T10:44:43;2.90;;;2.42;;
74523;SDS011;63074;44.696;10.358;2023-07-31T10:47:09;4.32;;;2.58;;
74523;SDS011;63074;44.696;10.358;2023-07-31T10:49:35;3.10;;;2.28;;
74523;SDS011;63074;44.696;10.358;2023-07-31T10:52:03;3.65;;;2.13;;
74523;SDS011;63074;44.696;10.358;2023-07-31T10:54:29;4.32;;;3.30;;
74523;SDS011;63074;44.696;10.358;2023-07-31T10:56:55;4.07;;;2.25;;
74523;SDS011;63074;44.696;10.358;2023-07-31T10:59:26;3.80;;;2.65;;
74523;SDS011;63074;44.696;10.358;2023-07-31T11:01:54;4.00;;;2.45;;
74523;SDS011;63074;44.696;10.358;2023-07-31T11:04:24;2.80;;;2.03;;
74523;SDS011;63074;44.696;10.358;2023-07-31T11:06:56;3.25;;;2.30;;
74523;SDS011;63074;44.696;10.358;2023-07-31T11:09:24;3.97;;;2.47;;
74523;SDS011;63074;44.696;10.358;2023-07-31T11:11:50;4.18;;;2.78;;
74523;SDS011;63074;44.696;10.358;2023-07-31T11:14:17;4.63;;;3.17;;
74523;SDS011;63074;44.696;10.358;2023-07-31T11:16:43;3.25;;;2.75;;
74523;SDS011;63074;44.696;10.358;2023-07-31T11:19:09;4.85;;;1.98;;
74523;SDS011;63074;44.696;10.358;2023-07-31T11:21:35;3.53;;;2.55;;
74523;SDS011;63074;44.696;10.358;2023-07-31T11:24:02;2.60;;;2.00;;
74523;SDS011;63074;44.696;10.358;2023-07-31T11:26:29;5.10;;;2.20;;
74523;SDS011;63074;44.696;10.358;2023-07-31T11:28:55;2.88;;;1.83;;
74523;SDS011;63074;44.696;10.358;2023-07-31T11:31:22;4.00;;;2.90;;
74523;SDS011;63074;44.696;10.358;2023-07-31T11:33:48;2.75;;;2.40;;
74523;SDS011;63074;44.696;10.358;2023-07-31T11:36:14;3.90;;;3.08;;
74523;SDS011;63074;44.696;10.358;2023-07-31T11:38:41;3.90;;;2.65;;
74523;SDS011;63074;44.696;10.358;2023-07-31T11:41:07;4.85;;;2.63;;
74523;SDS011;63074;44.696;10.358;2023-07-31T11:43:33;4.88;;;2.45;;
74523;SDS011;63074;44.696;10.358;2023-07-31T11:46:01;3.65;;;2.47;;
74523;SDS011;63074;44.696;10.358;2023-07-31T11:48:29;3.45;;;2.15;;
74523;SDS011;63074;44.696;10.358;2023-07-31T11:50:59;4.30;;;2.58;;
74523;SDS011;63074;44.696;10.358;2023-07-31T11:55:54;7.63;;;3.00;;
74523;SDS011;63074;44.696;10.358;2023-07-31T11:58:21;3.78;;;2.35;;
74523;SDS011;63074;44.696;10.358;2023-07-31T12:00:47;6.72;;;3.30;;
74523;SDS011;63074;44.696;10.358;2023-07-31T12:03:14;7.72;;;3.60;;
74523;SDS011;63074;44.696;10.358;2023-07-31T12:05:40;6.00;;;3.08;;
74523;SDS011;63074;44.696;10.358;2023-07-31T12:08:10;4.50;;;2.63;;
74523;SDS011;63074;44.696;10.358;2023-07-31T12:10:41;5.15;;;3.05;;
74523;SDS011;63074;44.696;10.358;2023-07-31T12:13:11;3.85;;;2.72;;
74523;SDS011;63074;44.696;10.358;2023-07-31T12:18:10;3.58;;;2.53;;
74523;SDS011;63074;44.696;10.358;2023-07-31T12:20:40;3.80;;;3.00;;
74523;SDS011;63074;44.696;10.358;2023-07-31T12:23:07;3.15;;;2.22;;
74523;SDS011;63074;44.696;10.358;2023-07-31T12:25:33;3.55;;;2.80;;
74523;SDS011;63074;44.696;10.358;2023-07-31T12:28:04;6.35;;;2.60;;
74523;SDS011;63074;44.696;10.358;2023-07-31T12:30:32;3.58;;;2.63;;
74523;SDS011;63074;44.696;10.358;2023-07-31T12:35:44;3.67;;;2.80;;
74523;SDS011;63074;44.696;10.358;2023-07-31T12:38:11;4.38;;;2.65;;
74523;SDS011;63074;44.696;10.358;2023-07-31T12:40:38;5.25;;;3.03;;
74523;SDS011;63074;44.696;10.358;2023-07-31T12:43:04;3.05;;;1.88;;
74523;SDS011;63074;44.696;10.358;2023-07-31T12:45:31;3.53;;;2.78;;
74523;SDS011;63074;44.696;10.358;2023-07-31T12:47:58;4.07;;;3.17;;
74523;SDS011;63074;44.696;10.358;2023-07-31T12:50:24;4.05;;;2.25;;
74523;SDS011;63074;44.696;10.358;2023-07-31T12:52:50;2.95;;;2.35;;
74523;SDS011;63074;44.696;10.358;2023-07-31T12:55:17;3.85;;;2.50;;
74523;SDS011;63074;44.696;10.358;2023-07-31T12:57:43;4.38;;;3.05;;
74523;SDS011;63074;44.696;10.358;2023-07-31T13:00:09;5.07;;;3.00;;
74523;SDS011;63074;44.696;10.358;2023-07-31T13:02:36;4.60;;;2.80;;
74523;SDS011;63074;44.696;10.358;2023-07-31T13:05:02;5.22;;;2.78;;
74523;SDS011;63074;44.696;10.358;2023-07-31T13:07:28;4.22;;;3.10;;
74523;SDS011;63074;44.696;10.358;2023-07-31T13:09:54;3.78;;;2.95;;
74523;SDS011;63074;44.696;10.358;2023-07-31T13:12:20;2.78;;;2.40;;
74523;SDS011;63074;44.696;10.358;2023-07-31T13:14:46;6.57;;;2.78;;
74523;SDS011;63074;44.696;10.358;2023-07-31T13:17:12;6.00;;;2.63;;
74523;SDS011;63074;44.696;10.358;2023-07-31T13:19:38;2.95;;;2.05;;
74523;SDS011;63074;44.696;10.358;2023-07-31T13:22:04;3.60;;;2.50;;
74523;SDS011;63074;44.696;10.358;2023-07-31T13:24:30;3.65;;;2.78;;
74523;SDS011;63074;44.696;10.358;2023-07-31T13:26:56;3.40;;;2.42;;
74523;SDS011;63074;44.696;10.358;2023-07-31T13:29:22;3.80;;;2.30;;
74523;SDS011;63074;44.696;10.358;2023-07-31T13:31:49;5.15;;;2.55;;
74523;SDS011;63074;44.696;10.358;2023-07-31T13:34:15;3.08;;;2.22;;
74523;SDS011;63074;44.696;10.358;2023-07-31T13:36:41;4.95;;;2.50;;
74523;SDS011;63074;44.696;10.358;2023-07-31T13:39:07;3.08;;;2.30;;
74523;SDS011;63074;44.696;10.358;2023-07-31T13:41:33;6.18;;;2.47;;
74523;SDS011;63074;44.696;10.358;2023-07-31T13:43:59;4.70;;;2.70;;
74523;SDS011;63074;44.696;10.358;2023-07-31T13:46:25;3.45;;;2.25;;
74523;SDS011;63074;44.696;10.358;2023-07-31T13:48:51;7.07;;;3.08;;
74523;SDS011;63074;44.696;10.358;2023-07-31T13:51:23;5.03;;;2.83;;
74523;SDS011;63074;44.696;10.358;2023-07-31T13:53:49;4.10;;;2.30;;
74523;SDS011;63074;44.696;10.358;2023-07-31T13:56:15;5.70;;;2.42;;
74523;SDS011;63074;44.696;10.358;2023-07-31T13:58:41;2.90;;;2.22;;
74523;SDS011;63074;44.696;10.358;2023-07-31T14:01:07;2.65;;;2.45;;
74523;SDS011;63074;44.696;10.358;2023-07-31T14:03:34;2.88;;;2.35;;
74523;SDS011;63074;44.696;10.358;2023-07-31T14:06:00;3.78;;;1.98;;
74523;SDS011;63074;44.696;10.358;2023-07-31T14:08:26;3.63;;;3.28;;
74523;SDS011;63074;44.696;10.358;2023-07-31T14:10:52;5.88;;;2.80;;
74523;SDS011;63074;44.696;10.358;2023-07-31T14:15:44;7.43;;;3.10;;
74523;SDS011;63074;44.696;10.358;2023-07-31T14:18:10;5.95;;;3.00;;
74523;SDS011;63074;44.696;10.358;2023-07-31T14:20:36;5.22;;;2.47;;
74523;SDS011;63074;44.696;10.358;2023-07-31T14:23:02;4.40;;;2.83;;
74523;SDS011;63074;44.696;10.358;2023-07-31T14:25:28;3.50;;;2.50;;
74523;SDS011;63074;44.696;10.358;2023-07-31T14:27:54;4.03;;;2.88;;
74523;SDS011;63074;44.696;10.358;2023-07-31T14:30:20;5.32;;;2.20;;
74523;SDS011;63074;44.696;10.358;2023-07-31T14:32:46;3.25;;;2.45;;
74523;SDS011;63074;44.696;10.358;2023-07-31T14:35:12;3.78;;;2.03;;
74523;SDS011;63074;44.696;10.358;2023-07-31T14:37:39;2.63;;;2.42;;
74523;SDS011;63074;44.696;10.358;2023-07-31T14:40:06;3.22;;;2.60;;
74523;SDS011;63074;44.696;10.358;2023-07-31T14:42:32;3.30;;;2.13;;
74523;SDS011;63074;44.696;10.358;2023-07-31T14:44:58;5.63;;;3.03;;
74523;SDS011;63074;44.696;10.358;2023-07-31T14:47:24;3.95;;;3.50;;
74523;SDS011;63074;44.696;10.358;2023-07-31T14:49:50;2.90;;;2.70;;
74523;SDS011;63074;44.696;10.358;2023-07-31T14:52:16;6.40;;;2.67;;
74523;SDS011;63074;44.696;10.358;2023-07-31T14:54:42;7.03;;;2.67;;
74523;SDS011;63074;44.696;10.358;2023-07-31T14:57:08;3.70;;;2.33;;
74523;SDS011;63074;44.696;10.358;2023-07-31T14:59:34;4.18;;;2.65;;
74523;SDS011;63074;44.696;10.358;2023-07-31T15:02:00;7.05;;;2.75;;
74523;SDS011;63074;44.696;10.358;2023-07-31T15:04:27;5.05;;;2.30;;
74523;SDS011;63074;44.696;10.358;2023-07-31T15:06:53;3.70;;;2.35;;
74523;SDS011;63074;44.696;10.358;2023-07-31T15:11:45;3.28;;;2.45;;
74523;SDS011;63074;44.696;10.358;2023-07-31T15:14:11;4.70;;;2.83;;
74523;SDS011;63074;44.696;10.358;2023-07-31T15:16:37;4.25;;;2.22;;
74523;SDS011;63074;44.696;10.358;2023-07-31T15:19:03;4.88;;;2.05;;